createdAt,value
2022-10-19T00:00:29.500Z,2.15
2022-10-19T00:02:55.817Z,2.00
2022-10-19T00:05:22.203Z,2.43
2022-10-19T00:07:48.500Z,1.90
2022-10-19T00:10:14.800Z,1.95
2022-10-19T00:12:41.171Z,2.03
2022-10-19T00:15:08.042Z,2.50
2022-10-19T00:17:34.836Z,1.93
2022-10-19T00:20:01.456Z,2.05
2022-10-19T00:22:27.786Z,2.58
2022-10-19T00:24:56.623Z,2.08
2022-10-19T00:27:22.932Z,2.40
2022-10-19T00:29:49.317Z,2.27
2022-10-19T00:32:15.654Z,1.50
2022-10-19T00:34:41.999Z,2.30
2022-10-19T00:37:08.328Z,1.95
2022-10-19T00:39:34.648Z,1.80
2022-10-19T00:42:00.979Z,2.10
2022-10-19T00:44:30.247Z,2.15
2022-10-19T00:47:03.418Z,1.92
2022-10-19T00:49:33.711Z,1.92
2022-10-19T00:52:07.081Z,2.00
2022-10-19T00:54:36.153Z,2.10
2022-10-19T00:57:05.053Z,1.77
2022-10-19T00:59:32.615Z,1.52
2022-10-19T01:02:00.720Z,1.65
2022-10-19T01:04:29.235Z,1.70
2022-10-19T01:06:57.271Z,2.30
2022-10-19T01:09:23.613Z,2.38
2022-10-19T01:12:14.907Z,1.77
2022-10-19T01:15:03.117Z,1.48
2022-10-19T01:17:50.921Z,1.90
2022-10-19T01:20:35.803Z,1.93
2022-10-19T01:23:45.555Z,1.52
2022-10-19T01:26:40.987Z,1.38
2022-10-19T01:29:44.978Z,1.23
2022-10-19T01:32:25.140Z,1.23
2022-10-19T01:35:01.693Z,1.90
2022-10-19T01:37:31.162Z,1.52
2022-10-19T01:40:14.862Z,1.50
2022-10-19T01:42:58.891Z,1.83
2022-10-19T01:45:41.502Z,1.10
2022-10-19T01:48:17.395Z,1.60
2022-10-19T01:50:48.133Z,1.25
2022-10-19T01:53:17.796Z,1.80
2022-10-19T01:55:48.743Z,1.45
2022-10-19T01:58:22.544Z,1.40
2022-10-19T02:00:51.350Z,1.90
2022-10-19T02:03:19.361Z,1.20
2022-10-19T02:05:48.139Z,1.33
2022-10-19T02:08:23.911Z,1.25
2022-10-19T02:10:51.152Z,0.90
2022-10-19T02:13:20.512Z,1.20
2022-10-19T02:15:50.901Z,1.38
2022-10-19T02:18:23.791Z,1.10
2022-10-19T02:20:50.295Z,1.42
2022-10-19T02:23:20.686Z,1.25
2022-10-19T02:25:47.121Z,1.17
2022-10-19T02:28:13.586Z,1.50
2022-10-19T02:30:40.017Z,1.20
2022-10-19T02:33:07.816Z,1.63
2022-10-19T02:35:34.643Z,1.27
2022-10-19T02:38:02.827Z,1.20
2022-10-19T02:40:33.492Z,1.55
2022-10-19T02:43:05.486Z,1.55
2022-10-19T02:45:37.454Z,1.30
2022-10-19T02:48:08.626Z,1.60
2022-10-19T02:50:35.397Z,1.30
2022-10-19T02:53:01.701Z,1.40
2022-10-19T02:55:29.910Z,1.15
2022-10-19T02:57:57.247Z,1.50
2022-10-19T03:00:23.605Z,1.30
2022-10-19T03:02:49.945Z,1.30
2022-10-19T03:05:16.271Z,1.65
2022-10-19T03:07:43.260Z,1.30
2022-10-19T03:10:09.885Z,1.35
2022-10-19T03:12:36.240Z,1.60
2022-10-19T03:15:02.606Z,1.40
2022-10-19T03:17:28.924Z,1.48
2022-10-19T03:19:55.251Z,1.23
2022-10-19T03:22:21.611Z,1.15
2022-10-19T03:24:47.909Z,0.90
2022-10-19T03:27:14.231Z,1.53
2022-10-19T03:29:40.547Z,1.25
2022-10-19T03:32:06.943Z,1.40
2022-10-19T03:34:33.394Z,1.17
2022-10-19T03:36:59.711Z,1.10
2022-10-19T03:39:26.388Z,1.27
2022-10-19T03:41:52.695Z,1.13
2022-10-19T03:44:19.001Z,1.10
2022-10-19T03:46:45.495Z,1.50
2022-10-19T03:49:12.163Z,1.52
2022-10-19T03:51:38.531Z,1.20
2022-10-19T03:54:07.391Z,1.40
2022-10-19T03:56:35.286Z,1.52
2022-10-19T03:59:02.821Z,1.23
2022-10-19T04:01:32.848Z,0.90
2022-10-19T04:04:02.343Z,1.27
2022-10-19T04:06:31.567Z,1.15
2022-10-19T04:08:58.950Z,1.10
2022-10-19T04:11:27.634Z,1.00
2022-10-19T04:13:55.369Z,1.13
2022-10-19T04:16:23.428Z,1.30
2022-10-19T04:18:50.004Z,1.10
2022-10-19T04:21:28.150Z,1.10
2022-10-19T04:23:58.925Z,1.00
2022-10-19T04:26:25.232Z,1.10
2022-10-19T04:28:51.690Z,0.80
2022-10-19T04:31:18.025Z,1.02
2022-10-19T04:36:12.200Z,1.13
2022-10-19T04:38:39.279Z,1.05
2022-10-19T04:41:08.375Z,1.37
2022-10-19T04:43:35.255Z,1.20
2022-10-19T04:46:06.408Z,1.00
2022-10-19T04:48:34.248Z,1.20
2022-10-19T04:51:00.805Z,0.90
2022-10-19T04:53:27.350Z,1.00
2022-10-19T04:55:53.816Z,0.70
2022-10-19T04:58:20.599Z,1.02
2022-10-19T05:00:47.058Z,1.10
2022-10-19T05:03:13.680Z,0.93
2022-10-19T05:05:39.990Z,0.90
2022-10-19T05:08:06.877Z,1.00
2022-10-19T05:10:33.272Z,0.70
2022-10-19T05:13:01.991Z,0.95
2022-10-19T05:15:29.280Z,1.05
2022-10-19T05:17:55.992Z,0.87
2022-10-19T05:20:22.819Z,0.95
2022-10-19T05:22:49.367Z,0.90
2022-10-19T05:25:15.986Z,0.80
2022-10-19T05:27:42.295Z,0.90
2022-10-19T05:30:09.175Z,1.00
2022-10-19T05:32:35.659Z,1.10
2022-10-19T05:35:01.989Z,0.80
2022-10-19T05:37:28.289Z,0.70
2022-10-19T05:39:57.611Z,0.90
2022-10-19T05:42:23.980Z,0.90
2022-10-19T05:44:50.283Z,1.00
2022-10-19T05:47:16.606Z,1.48
2022-10-19T05:49:42.929Z,0.80
2022-10-19T05:52:09.266Z,0.85
2022-10-19T05:54:37.145Z,0.90
2022-10-19T05:57:03.699Z,0.50
2022-10-19T05:59:30.095Z,0.90
2022-10-19T06:01:56.445Z,1.10
2022-10-19T06:04:22.856Z,0.90
2022-10-19T06:06:49.191Z,0.83
2022-10-19T06:09:15.539Z,0.70
2022-10-19T06:11:42.895Z,0.70
2022-10-19T06:14:13.108Z,0.80
2022-10-19T06:16:39.626Z,0.88
2022-10-19T06:19:06.233Z,0.80
2022-10-19T06:21:33.599Z,0.73
2022-10-19T06:24:02.795Z,0.93
2022-10-19T06:26:31.240Z,0.77
2022-10-19T06:29:00.433Z,0.73
2022-10-19T06:31:32.057Z,0.70
2022-10-19T06:33:58.593Z,0.63
2022-10-19T06:36:28.635Z,0.70
2022-10-19T06:38:56.580Z,0.95
2022-10-19T06:41:23.511Z,0.70
2022-10-19T06:43:54.215Z,0.80
2022-10-19T06:46:23.262Z,0.90
2022-10-19T06:48:54.492Z,0.77
2022-10-19T06:51:21.324Z,0.80
2022-10-19T06:53:48.975Z,1.05
2022-10-19T06:56:17.044Z,0.60
2022-10-19T06:58:43.439Z,0.80
2022-10-19T07:01:11.661Z,0.73
2022-10-19T07:03:38.186Z,0.80
2022-10-19T07:06:07.377Z,0.68
2022-10-19T07:08:35.828Z,0.70
2022-10-19T07:11:05.321Z,0.63
2022-10-19T07:13:31.793Z,0.60
2022-10-19T07:16:05.446Z,1.17
2022-10-19T07:18:32.185Z,0.60
2022-10-19T07:21:01.427Z,0.80
2022-10-19T07:23:29.159Z,0.70
2022-10-19T07:26:02.063Z,0.80
2022-10-19T07:28:29.742Z,0.70
2022-10-19T07:30:56.297Z,0.95
2022-10-19T07:33:22.806Z,1.30
2022-10-19T07:35:49.347Z,1.60
2022-10-19T07:38:15.809Z,0.88
2022-10-19T07:40:44.920Z,1.00
2022-10-19T07:43:13.662Z,1.05
2022-10-19T07:45:39.998Z,0.97
2022-10-19T07:48:06.409Z,0.77
2022-10-19T07:50:32.748Z,0.70
2022-10-19T07:52:59.068Z,0.85
2022-10-19T07:55:25.420Z,0.52
2022-10-19T07:57:51.756Z,0.50
2022-10-19T08:00:18.261Z,0.90
2022-10-19T08:02:59.724Z,1.17
2022-10-19T08:05:33.287Z,0.80
2022-10-19T08:07:59.747Z,0.63
2022-10-19T08:10:26.203Z,0.60
2022-10-19T08:12:52.542Z,0.70
2022-10-19T08:15:19.012Z,0.65
2022-10-19T08:17:45.506Z,0.75
2022-10-19T08:20:11.904Z,0.60
2022-10-19T08:22:38.223Z,0.50
2022-10-19T08:25:04.923Z,1.38
2022-10-19T08:27:31.286Z,0.50
2022-10-19T08:29:57.623Z,0.60
2022-10-19T08:32:23.940Z,0.75
2022-10-19T08:34:50.244Z,0.47
2022-10-19T08:37:32.578Z,0.73
2022-10-19T08:40:03.611Z,0.57
2022-10-19T08:42:54.349Z,0.57
2022-10-19T08:45:33.061Z,0.50
2022-10-19T08:48:07.062Z,0.60
2022-10-19T08:50:40.561Z,0.45
2022-10-19T08:53:16.673Z,0.65
2022-10-19T08:55:57.781Z,0.50
2022-10-19T08:58:36.326Z,0.55
2022-10-19T09:01:37.546Z,0.73
2022-10-19T09:04:14.900Z,0.50
2022-10-19T09:06:56.893Z,0.60
2022-10-19T09:09:23.923Z,0.60
2022-10-19T09:11:55.414Z,0.50
2022-10-19T09:14:31.631Z,0.67
2022-10-19T09:17:02.634Z,0.60
2022-10-19T09:19:31.824Z,0.80
2022-10-19T09:22:02.819Z,0.50
2022-10-19T09:24:40.716Z,0.40
2022-10-19T09:27:16.119Z,0.50
2022-10-19T09:29:48.030Z,0.50
2022-10-19T09:32:20.841Z,0.60
2022-10-19T09:34:53.205Z,0.50
2022-10-19T09:37:25.947Z,0.47
2022-10-19T09:39:54.992Z,0.50
2022-10-19T09:42:30.349Z,0.50
2022-10-19T09:44:59.882Z,0.50
2022-10-19T09:47:35.810Z,0.52
2022-10-19T09:50:18.073Z,0.50
2022-10-19T09:52:46.640Z,0.40
2022-10-19T09:55:18.656Z,0.50
2022-10-19T09:57:47.040Z,0.38
2022-10-19T10:00:22.236Z,0.30
2022-10-19T10:02:53.453Z,0.40
2022-10-19T10:05:29.558Z,0.37
2022-10-19T10:07:56.042Z,0.50
2022-10-19T10:10:30.597Z,0.50
2022-10-19T10:13:00.798Z,0.43
2022-10-19T10:15:33.980Z,0.40
2022-10-19T10:18:00.717Z,0.40
2022-10-19T10:20:28.347Z,0.30
2022-10-19T10:23:06.172Z,0.70
2022-10-19T10:25:35.025Z,0.40
2022-10-19T10:28:18.918Z,0.40
2022-10-19T10:30:47.717Z,0.30
2022-10-19T10:33:40.702Z,0.30
2022-10-19T10:36:11.754Z,0.38
2022-10-19T10:38:47.188Z,0.30
2022-10-19T10:41:20.183Z,0.32
2022-10-19T10:44:00.779Z,0.30
2022-10-19T10:46:37.018Z,0.30
2022-10-19T10:49:07.030Z,0.47
2022-10-19T10:51:43.124Z,0.30
2022-10-19T10:54:36.942Z,0.30
2022-10-19T10:57:15.653Z,0.30
2022-10-19T11:00:01.101Z,0.30
2022-10-19T11:02:42.314Z,0.60
2022-10-19T11:05:11.844Z,0.40
2022-10-19T11:07:44.916Z,0.30
2022-10-19T11:10:22.344Z,0.33
2022-10-19T11:13:12.678Z,0.30
2022-10-19T11:16:04.919Z,0.30
2022-10-19T11:19:07.278Z,0.70
2022-10-19T11:21:40.112Z,0.30
2022-10-19T11:24:22.575Z,0.20
2022-10-19T11:27:25.952Z,0.30
2022-10-19T11:30:13.286Z,0.30
2022-10-19T11:33:04.706Z,0.35
2022-10-19T11:35:59.530Z,0.20
2022-10-19T11:38:54.147Z,0.20
2022-10-19T11:41:33.691Z,0.30
2022-10-19T11:44:32.584Z,0.50
2022-10-19T11:47:20.388Z,0.20
2022-10-19T11:50:04.060Z,0.20
2022-10-19T11:52:58.476Z,0.33
2022-10-19T11:55:41.513Z,0.30
2022-10-19T11:58:13.843Z,0.32
2022-10-19T12:00:58.656Z,0.20
2022-10-19T12:03:31.080Z,0.20
2022-10-19T12:06:18.261Z,0.20
2022-10-19T12:09:02.183Z,0.43
2022-10-19T12:12:00.257Z,0.80
2022-10-19T12:14:31.777Z,0.30
2022-10-19T12:17:05.813Z,0.38
2022-10-19T12:19:40.532Z,0.33
2022-10-19T12:22:15.218Z,0.30
2022-10-19T12:24:41.539Z,0.30
2022-10-19T12:27:13.339Z,0.30
2022-10-19T12:29:43.413Z,0.30
2022-10-19T12:32:14.934Z,0.40
2022-10-19T12:34:56.659Z,0.88
2022-10-19T12:37:44.123Z,1.60
2022-10-19T12:40:43.147Z,0.43
2022-10-19T12:43:35.686Z,0.20
2022-10-19T12:46:08.851Z,0.40
2022-10-19T12:48:37.078Z,0.30
2022-10-19T12:51:06.678Z,0.40
2022-10-19T12:53:42.482Z,0.40
2022-10-19T12:56:19.446Z,0.30
2022-10-19T12:58:47.836Z,0.30
2022-10-19T13:01:35.868Z,0.20
2022-10-19T13:04:35.855Z,0.30
2022-10-19T13:07:10.766Z,0.20
2022-10-19T13:09:44.266Z,0.30
2022-10-19T13:12:16.272Z,0.30
2022-10-19T13:14:51.323Z,0.40
2022-10-19T13:17:44.042Z,0.25
2022-10-19T13:20:13.083Z,0.20
2022-10-19T13:22:48.776Z,0.20
2022-10-19T13:25:21.309Z,0.40
2022-10-19T13:27:49.487Z,0.30
2022-10-19T13:30:46.459Z,0.50
2022-10-19T13:33:25.316Z,0.20
2022-10-19T13:36:02.096Z,0.20
2022-10-19T13:38:52.965Z,0.20
2022-10-19T13:41:22.454Z,0.50
2022-10-19T13:44:01.021Z,0.40
2022-10-19T13:46:30.284Z,0.30
2022-10-19T13:49:05.562Z,0.20
2022-10-19T13:51:36.890Z,0.23
2022-10-19T13:54:49.006Z,0.32
2022-10-19T13:57:21.613Z,0.20
2022-10-19T14:00:12.851Z,0.30
2022-10-19T14:03:01.307Z,0.20
2022-10-19T14:05:55.568Z,0.20
2022-10-19T14:08:27.955Z,0.20
2022-10-19T14:11:11.644Z,0.30
2022-10-19T14:13:38.075Z,0.20
2022-10-19T14:16:04.638Z,0.30
2022-10-19T14:18:33.892Z,0.33
2022-10-19T14:21:02.961Z,0.30
2022-10-19T14:23:32.499Z,1.00
2022-10-19T14:26:03.262Z,0.20
2022-10-19T14:28:30.865Z,0.20
2022-10-19T14:30:59.878Z,0.40
2022-10-19T14:33:28.343Z,0.30
2022-10-19T14:35:55.380Z,0.47
2022-10-19T14:38:31.730Z,0.30
2022-10-19T14:40:58.312Z,0.20
2022-10-19T14:43:27.712Z,0.20
2022-10-19T14:46:06.219Z,0.20
2022-10-19T14:48:34.146Z,0.50
2022-10-19T14:51:00.741Z,0.20
2022-10-19T14:53:40.122Z,0.20
2022-10-19T14:56:13.863Z,0.20
2022-10-19T14:58:50.303Z,0.20
2022-10-19T15:01:18.317Z,0.13
2022-10-19T15:03:46.284Z,0.20
2022-10-19T15:06:27.630Z,0.20
2022-10-19T15:09:07.377Z,0.20
2022-10-19T15:11:40.911Z,0.20
2022-10-19T15:14:15.247Z,0.50
2022-10-19T15:16:49.791Z,0.28
2022-10-19T15:19:39.101Z,0.32
2022-10-19T15:22:31.525Z,0.40
2022-10-19T15:25:08.583Z,0.20
2022-10-19T15:27:37.039Z,0.20
2022-10-19T15:30:22.564Z,0.20
2022-10-19T15:32:54.416Z,0.20
2022-10-19T15:35:32.892Z,0.30
2022-10-19T15:38:05.023Z,0.30
2022-10-19T15:40:37.720Z,0.22
2022-10-19T15:43:34.880Z,0.22
2022-10-19T15:46:25.697Z,0.30
2022-10-19T15:48:57.856Z,0.47
2022-10-19T15:51:26.892Z,0.20
2022-10-19T15:53:56.167Z,0.30
2022-10-19T15:56:25.027Z,0.20
2022-10-19T15:58:53.168Z,0.43
2022-10-19T16:01:23.357Z,0.40
2022-10-19T16:03:50.293Z,0.20
2022-10-19T16:06:18.000Z,0.20
2022-10-19T16:08:46.221Z,0.20
2022-10-19T16:11:17.552Z,0.30
2022-10-19T16:13:44.121Z,0.30
2022-10-19T16:16:18.206Z,0.30
2022-10-19T16:18:44.495Z,0.30
2022-10-19T16:21:10.812Z,0.30
2022-10-19T16:23:41.866Z,0.32
2022-10-19T16:26:08.731Z,0.50
2022-10-19T16:28:35.859Z,0.20
2022-10-19T16:31:02.168Z,0.30
2022-10-19T16:33:28.487Z,0.30
2022-10-19T16:35:54.770Z,0.60
2022-10-19T16:38:21.096Z,0.40
2022-10-19T16:40:47.432Z,0.20
2022-10-19T16:43:13.724Z,0.52
2022-10-19T16:45:43.584Z,1.23
2022-10-19T16:48:12.792Z,1.40
2022-10-19T16:50:39.363Z,1.60
2022-10-19T16:53:12.118Z,1.42
2022-10-19T16:55:39.840Z,1.00
2022-10-19T16:58:06.992Z,0.80
2022-10-19T17:00:35.221Z,0.85
2022-10-19T17:03:01.564Z,1.03
2022-10-19T17:05:27.913Z,0.65
2022-10-19T17:07:54.254Z,0.82
2022-10-19T17:10:20.660Z,0.90
2022-10-19T17:12:47.016Z,0.70
2022-10-19T17:18:00.275Z,1.58
2022-10-19T17:20:26.595Z,0.50
2022-10-19T17:22:52.918Z,0.60
2022-10-19T17:25:19.357Z,0.50
2022-10-19T17:27:50.144Z,0.80
2022-10-19T17:30:16.658Z,0.70
2022-10-19T17:32:43.066Z,1.02
2022-10-19T17:35:09.538Z,0.80
2022-10-19T17:37:36.105Z,0.60
2022-10-19T17:40:02.693Z,0.73
2022-10-19T17:42:29.015Z,0.50
2022-10-19T17:44:55.375Z,0.60
2022-10-19T17:47:21.718Z,0.60
2022-10-19T17:49:48.031Z,0.50
2022-10-19T17:52:14.361Z,0.50
2022-10-19T17:54:48.909Z,0.40
2022-10-19T17:57:26.953Z,0.70
2022-10-19T17:59:54.480Z,0.60
2022-10-19T18:02:20.845Z,0.95
2022-10-19T18:04:47.175Z,0.77
2022-10-19T18:07:13.530Z,0.50
2022-10-19T18:09:39.868Z,0.50
2022-10-19T18:12:07.599Z,0.60
2022-10-19T18:14:34.114Z,0.43
2022-10-19T18:17:00.443Z,1.00
2022-10-19T18:19:26.761Z,0.40
2022-10-19T18:21:53.336Z,0.40
2022-10-19T18:24:21.241Z,0.50
2022-10-19T18:26:49.366Z,0.50
2022-10-19T18:29:18.955Z,0.50
2022-10-19T18:31:51.125Z,0.50
2022-10-19T18:34:20.321Z,0.40
2022-10-19T18:36:47.742Z,0.55
2022-10-19T18:39:14.764Z,0.40
2022-10-19T18:41:41.800Z,0.50
2022-10-19T18:44:11.397Z,0.45
2022-10-19T18:46:37.788Z,0.60
2022-10-19T18:49:06.763Z,0.47
2022-10-19T18:51:33.095Z,0.40
2022-10-19T18:53:59.582Z,0.50
2022-10-19T18:56:26.924Z,0.60
2022-10-19T18:58:53.252Z,0.40
2022-10-19T19:01:27.067Z,0.50
2022-10-19T19:03:56.305Z,0.50
2022-10-19T19:06:33.028Z,0.50
2022-10-19T19:09:00.656Z,0.50
2022-10-19T19:11:30.663Z,0.43
2022-10-19T19:14:02.283Z,0.40
2022-10-19T19:16:32.125Z,0.50
2022-10-19T19:18:58.465Z,0.60
2022-10-19T19:21:26.702Z,0.47
2022-10-19T19:23:54.566Z,0.40
2022-10-19T19:26:26.281Z,0.43
2022-10-19T19:28:52.879Z,0.40
2022-10-19T19:31:19.889Z,0.50
2022-10-19T19:33:47.799Z,0.60
2022-10-19T19:36:16.755Z,0.40
2022-10-19T19:38:43.627Z,0.65
2022-10-19T19:41:12.831Z,0.40
2022-10-19T19:43:39.796Z,0.50
2022-10-19T19:46:14.960Z,0.52
2022-10-19T19:48:43.570Z,0.40
2022-10-19T19:51:12.797Z,0.60
2022-10-19T19:53:39.503Z,0.47
2022-10-19T19:56:07.564Z,0.47
2022-10-19T19:58:34.483Z,0.40
2022-10-19T20:01:11.885Z,0.30
2022-10-19T20:03:38.628Z,0.55
2022-10-19T20:06:05.989Z,0.47
2022-10-19T20:08:32.798Z,0.47
2022-10-19T20:11:07.944Z,0.55
2022-10-19T20:13:35.076Z,0.30
2022-10-19T20:16:08.514Z,0.30
2022-10-19T20:18:34.844Z,0.60
2022-10-19T20:21:02.132Z,0.57
2022-10-19T20:23:29.499Z,0.30
2022-10-19T20:25:56.337Z,0.40
2022-10-19T20:28:24.063Z,0.32
2022-10-19T20:31:07.680Z,0.40
2022-10-19T20:33:36.715Z,0.50
2022-10-19T20:36:11.879Z,0.50
2022-10-19T20:38:38.795Z,0.32
2022-10-19T20:41:08.199Z,0.40
2022-10-19T20:43:36.403Z,0.50
2022-10-19T20:46:13.684Z,0.50
2022-10-19T20:48:40.587Z,0.30
2022-10-19T20:51:39.223Z,0.43
2022-10-19T20:54:09.686Z,0.70
2022-10-19T20:56:37.616Z,0.32
2022-10-19T20:59:07.928Z,0.30
2022-10-19T21:01:36.780Z,0.60
2022-10-19T21:04:05.830Z,0.52
2022-10-19T21:06:34.715Z,0.45
2022-10-19T21:09:01.115Z,0.38
2022-10-19T21:11:33.912Z,0.37
2022-10-19T21:14:04.173Z,0.30
2022-10-19T21:16:33.872Z,0.40
2022-10-19T21:19:01.194Z,0.40
2022-10-19T21:21:30.416Z,0.43
2022-10-19T21:23:59.888Z,0.30
2022-10-19T21:26:28.221Z,0.40
2022-10-19T21:28:55.364Z,0.40
2022-10-19T21:31:23.719Z,0.57
2022-10-19T21:33:50.953Z,0.40
2022-10-19T21:36:18.221Z,0.40
2022-10-19T21:38:44.724Z,0.50
2022-10-19T21:41:16.567Z,0.40
2022-10-19T21:43:43.328Z,0.40
2022-10-19T21:46:15.399Z,0.30
2022-10-19T21:48:42.708Z,0.40
2022-10-19T21:51:30.377Z,0.50
2022-10-19T21:53:56.738Z,0.43
2022-10-19T21:56:23.482Z,0.32
2022-10-19T21:58:52.580Z,0.52
2022-10-19T22:01:21.622Z,0.40
2022-10-19T22:03:54.224Z,0.63
2022-10-19T22:06:20.587Z,0.40
2022-10-19T22:08:47.481Z,0.30
2022-10-19T22:11:14.799Z,0.40
2022-10-19T22:13:41.291Z,0.40
2022-10-19T22:16:12.238Z,0.40
2022-10-19T22:18:38.664Z,0.45
2022-10-19T22:21:07.449Z,0.38
2022-10-19T22:23:33.793Z,0.30
2022-10-19T22:26:00.459Z,0.60
2022-10-19T22:28:27.411Z,0.30
2022-10-19T22:30:55.671Z,0.40
2022-10-19T22:33:23.299Z,0.40
2022-10-19T22:35:54.539Z,0.30
2022-10-19T22:38:20.869Z,0.40
2022-10-19T22:41:43.612Z,0.40
2022-10-19T22:44:09.959Z,0.30
2022-10-19T22:46:36.324Z,0.30
2022-10-19T22:49:02.805Z,0.30
2022-10-19T22:51:29.375Z,0.40
2022-10-19T22:53:55.849Z,0.30
2022-10-19T22:56:22.203Z,0.30
2022-10-19T22:58:48.574Z,0.40
2022-10-19T23:01:16.334Z,0.52
2022-10-19T23:03:43.103Z,0.40
2022-10-19T23:06:12.135Z,0.30
2022-10-19T23:08:38.728Z,0.40
2022-10-19T23:11:05.577Z,0.40
2022-10-19T23:13:32.075Z,0.40
2022-10-19T23:15:58.474Z,0.40
2022-10-19T23:18:24.924Z,0.30
2022-10-19T23:20:58.792Z,0.40
2022-10-19T23:23:25.530Z,0.40
2022-10-19T23:26:12.411Z,0.50
2022-10-19T23:28:40.482Z,0.40
2022-10-19T23:31:13.245Z,0.40
2022-10-19T23:33:40.354Z,0.30
2022-10-19T23:36:14.704Z,0.40
2022-10-19T23:38:42.335Z,0.50
2022-10-19T23:41:08.830Z,0.40
2022-10-19T23:46:01.655Z,0.30
2022-10-19T23:48:28.474Z,0.30
2022-10-19T23:51:00.926Z,0.50
2022-10-19T23:53:28.562Z,0.50
2022-10-19T23:56:09.903Z,0.88
2022-10-19T23:58:36.282Z,0.40
